sensor_id;sensor_type;location;lat;lon;timestamp;pressure;altitude;pressure_sealevel;temperature;humidity
73338;BME280;61575;49.908;35.556;2022-07-29T00:00:07;99524.59;;;19.52;73.27
73338;BME280;61575;49.908;35.556;2022-07-29T00:03:16;99525.63;;;19.51;73.18
73338;BME280;61575;49.908;35.556;2022-07-29T00:06:18;99529.59;;;19.49;73.17
73338;BME280;61575;49.908;35.556;2022-07-29T00:09:20;99527.34;;;19.46;73.19
73338;BME280;61575;49.908;35.556;2022-07-29T00:12:24;99537.81;;;19.42;73.26
73338;BME280;61575;49.908;35.556;2022-07-29T00:15:31;99533.47;;;19.34;73.86
73338;BME280;61575;49.908;35.556;2022-07-29T00:18:33;99529.53;;;19.30;73.69
73338;BME280;61575;49.908;35.556;2022-07-29T00:21:35;99536.00;;;19.29;73.73
73338;BME280;61575;49.908;35.556;2022-07-29T00:24:37;99524.75;;;19.26;73.84
73338;BME280;61575;49.908;35.556;2022-07-29T00:27:39;99527.91;;;19.23;73.72
73338;BME280;61575;49.908;35.556;2022-07-29T00:30:41;99530.44;;;19.18;74.03
73338;BME280;61575;49.908;35.556;2022-07-29T00:33:44;99530.25;;;19.13;73.98
73338;BME280;61575;49.908;35.556;2022-07-29T00:36:48;99532.59;;;19.09;74.02
73338;BME280;61575;49.908;35.556;2022-07-29T00:39:50;99536.56;;;19.06;74.20
73338;BME280;61575;49.908;35.556;2022-07-29T00:42:52;99535.13;;;19.04;74.33
73338;BME280;61575;49.908;35.556;2022-07-29T00:45:55;99540.19;;;18.94;74.79
73338;BME280;61575;49.908;35.556;2022-07-29T00:48:57;99539.13;;;18.95;74.42
73338;BME280;61575;49.908;35.556;2022-07-29T00:52:04;99536.63;;;18.93;74.42
73338;BME280;61575;49.908;35.556;2022-07-29T00:55:08;99540.41;;;18.92;74.49
73338;BME280;61575;49.908;35.556;2022-07-29T00:58:12;99537.28;;;18.89;74.52
73338;BME280;61575;49.908;35.556;2022-07-29T01:01:14;99529.56;;;18.86;74.53
73338;BME280;61575;49.908;35.556;2022-07-29T01:04:16;99541.69;;;18.83;74.50
73338;BME280;61575;49.908;35.556;2022-07-29T01:07:18;99542.13;;;18.80;74.62
73338;BME280;61575;49.908;35.556;2022-07-29T01:10:24;99544.22;;;18.78;74.40
73338;BME280;61575;49.908;35.556;2022-07-29T01:13:27;99546.97;;;18.71;74.46
73338;BME280;61575;49.908;35.556;2022-07-29T01:16:37;99552.63;;;18.70;74.80
73338;BME280;61575;49.908;35.556;2022-07-29T01:30:41;99549.53;;;18.47;75.26
73338;BME280;61575;49.908;35.556;2022-07-29T01:33:45;99549.72;;;18.45;75.36
73338;BME280;61575;49.908;35.556;2022-07-29T01:37:03;99557.03;;;18.44;75.22
73338;BME280;61575;49.908;35.556;2022-07-29T01:43:43;99549.97;;;18.37;75.16
73338;BME280;61575;49.908;35.556;2022-07-29T01:46:51;99545.78;;;18.34;75.29
73338;BME280;61575;49.908;35.556;2022-07-29T01:49:56;99546.03;;;18.26;75.53
73338;BME280;61575;49.908;35.556;2022-07-29T01:53:02;99546.44;;;18.23;75.63
73338;BME280;61575;49.908;35.556;2022-07-29T01:56:07;99548.13;;;18.18;75.75
73338;BME280;61575;49.908;35.556;2022-07-29T01:59:11;99545.22;;;18.12;75.89
73338;BME280;61575;49.908;35.556;2022-07-29T02:02:15;99545.00;;;18.14;75.61
73338;BME280;61575;49.908;35.556;2022-07-29T02:05:19;99543.34;;;18.06;76.01
73338;BME280;61575;49.908;35.556;2022-07-29T02:08:23;99545.63;;;18.03;75.97
73338;BME280;61575;49.908;35.556;2022-07-29T02:11:26;99551.06;;;18.03;76.05
73338;BME280;61575;49.908;35.556;2022-07-29T02:14:33;99547.31;;;18.04;75.71
73338;BME280;61575;49.908;35.556;2022-07-29T02:17:43;99554.00;;;18.01;75.56
73338;BME280;61575;49.908;35.556;2022-07-29T02:20:49;99550.03;;;17.97;75.62
73338;BME280;61575;49.908;35.556;2022-07-29T02:23:53;99553.16;;;17.94;75.91
73338;BME280;61575;49.908;35.556;2022-07-29T02:27:00;99559.84;;;17.92;76.04
73338;BME280;61575;49.908;35.556;2022-07-29T02:30:03;99557.34;;;17.90;75.87
73338;BME280;61575;49.908;35.556;2022-07-29T02:33:07;99556.50;;;17.90;76.04
73338;BME280;61575;49.908;35.556;2022-07-29T02:36:10;99553.16;;;17.88;76.28
73338;BME280;61575;49.908;35.556;2022-07-29T02:39:14;99557.53;;;17.89;76.31
73338;BME280;61575;49.908;35.556;2022-07-29T02:42:17;99568.19;;;17.90;76.41
73338;BME280;61575;49.908;35.556;2022-07-29T02:45:20;99561.09;;;17.89;76.37
73338;BME280;61575;49.908;35.556;2022-07-29T02:48:27;99553.78;;;17.90;76.53
73338;BME280;61575;49.908;35.556;2022-07-29T02:51:58;99556.91;;;17.93;76.52
73338;BME280;61575;49.908;35.556;2022-07-29T02:55:10;99560.25;;;17.95;76.51
73338;BME280;61575;49.908;35.556;2022-07-29T02:58:21;99563.59;;;17.97;76.65
73338;BME280;61575;49.908;35.556;2022-07-29T03:01:30;99565.25;;;17.98;76.85
73338;BME280;61575;49.908;35.556;2022-07-29T03:04:34;99574.22;;;17.99;77.14
73338;BME280;61575;49.908;35.556;2022-07-29T03:07:36;99565.25;;;18.05;76.94
73338;BME280;61575;49.908;35.556;2022-07-29T03:10:43;99572.13;;;18.07;76.93
73338;BME280;61575;49.908;35.556;2022-07-29T03:13:47;99569.00;;;18.04;76.97
73338;BME280;61575;49.908;35.556;2022-07-29T03:16:49;99575.91;;;18.06;77.10
73338;BME280;61575;49.908;35.556;2022-07-29T03:19:53;99575.47;;;18.09;76.95
73338;BME280;61575;49.908;35.556;2022-07-29T03:22:55;99570.69;;;18.11;76.94
73338;BME280;61575;49.908;35.556;2022-07-29T03:25:57;99572.97;;;18.15;77.18
73338;BME280;61575;49.908;35.556;2022-07-29T03:28:59;99576.50;;;18.22;77.18
73338;BME280;61575;49.908;35.556;2022-07-29T03:32:03;99579.22;;;18.28;77.27
73338;BME280;61575;49.908;35.556;2022-07-29T03:35:09;99578.38;;;18.34;77.08
73338;BME280;61575;49.908;35.556;2022-07-29T03:38:11;99587.31;;;18.41;77.15
73338;BME280;61575;49.908;35.556;2022-07-29T03:41:14;99591.69;;;18.49;77.08
73338;BME280;61575;49.908;35.556;2022-07-29T03:44:17;99586.03;;;18.57;77.02
73338;BME280;61575;49.908;35.556;2022-07-29T03:47:23;99584.38;;;18.63;77.36
73338;BME280;61575;49.908;35.556;2022-07-29T03:50:48;99586.88;;;18.71;77.04
73338;BME280;61575;49.908;35.556;2022-07-29T03:53:52;99586.41;;;18.81;76.74
73338;BME280;61575;49.908;35.556;2022-07-29T03:56:54;99593.06;;;18.91;77.19
73338;BME280;61575;49.908;35.556;2022-07-29T03:59:59;99593.84;;;19.05;76.12
73338;BME280;61575;49.908;35.556;2022-07-29T04:03:04;99593.13;;;19.23;75.48
73338;BME280;61575;49.908;35.556;2022-07-29T04:06:11;99591.97;;;19.44;74.77
73338;BME280;61575;49.908;35.556;2022-07-29T04:09:14;99601.31;;;19.61;74.41
73338;BME280;61575;49.908;35.556;2022-07-29T04:12:16;99607.09;;;19.71;73.80
73338;BME280;61575;49.908;35.556;2022-07-29T04:15:18;99607.13;;;19.96;72.94
73338;BME280;61575;49.908;35.556;2022-07-29T04:18:20;99605.94;;;20.10;72.21
73338;BME280;61575;49.908;35.556;2022-07-29T04:21:22;99606.16;;;20.33;71.74
73338;BME280;61575;49.908;35.556;2022-07-29T04:24:24;99616.22;;;20.58;70.80
73338;BME280;61575;49.908;35.556;2022-07-29T04:27:26;99607.59;;;20.79;69.95
73338;BME280;61575;49.908;35.556;2022-07-29T04:30:29;99610.44;;;21.02;69.31
73338;BME280;61575;49.908;35.556;2022-07-29T04:33:32;99609.06;;;21.30;68.47
73338;BME280;61575;49.908;35.556;2022-07-29T04:36:34;99612.72;;;21.54;67.75
73338;BME280;61575;49.908;35.556;2022-07-29T04:39:36;99611.97;;;21.77;67.18
73338;BME280;61575;49.908;35.556;2022-07-29T04:42:39;99616.63;;;21.88;66.79
73338;BME280;61575;49.908;35.556;2022-07-29T04:45:47;99618.84;;;22.09;66.41
73338;BME280;61575;49.908;35.556;2022-07-29T04:48:49;99616.59;;;22.29;65.18
73338;BME280;61575;49.908;35.556;2022-07-29T04:51:51;99613.41;;;22.44;64.59
73338;BME280;61575;49.908;35.556;2022-07-29T04:54:53;99616.81;;;22.75;64.14
73338;BME280;61575;49.908;35.556;2022-07-29T04:57:54;99617.19;;;22.90;62.82
73338;BME280;61575;49.908;35.556;2022-07-29T05:00:56;99615.00;;;23.04;62.53
73338;BME280;61575;49.908;35.556;2022-07-29T05:03:58;99615.13;;;23.09;61.92
73338;BME280;61575;49.908;35.556;2022-07-29T05:07:01;99616.16;;;23.19;61.76
73338;BME280;61575;49.908;35.556;2022-07-29T05:10:03;99618.84;;;23.31;60.12
73338;BME280;61575;49.908;35.556;2022-07-29T05:13:06;99623.06;;;23.50;59.77
73338;BME280;61575;49.908;35.556;2022-07-29T05:16:09;99627.84;;;23.43;58.62
73338;BME280;61575;49.908;35.556;2022-07-29T05:19:11;99624.69;;;23.63;57.77
73338;BME280;61575;49.908;35.556;2022-07-29T05:22:15;99623.31;;;23.77;57.25
73338;BME280;61575;49.908;35.556;2022-07-29T05:25:17;99616.78;;;23.95;57.36
73338;BME280;61575;49.908;35.556;2022-07-29T05:28:19;99622.59;;;24.15;56.44
73338;BME280;61575;49.908;35.556;2022-07-29T05:31:21;99618.31;;;24.53;56.29
73338;BME280;61575;49.908;35.556;2022-07-29T05:34:23;99619.84;;;24.66;54.83
73338;BME280;61575;49.908;35.556;2022-07-29T05:37:26;99628.41;;;24.69;53.81
73338;BME280;61575;49.908;35.556;2022-07-29T05:40:28;99614.50;;;24.76;52.76
73338;BME280;61575;49.908;35.556;2022-07-29T05:43:30;99613.44;;;24.77;52.58
73338;BME280;61575;49.908;35.556;2022-07-29T05:46:32;99618.22;;;24.86;53.19
73338;BME280;61575;49.908;35.556;2022-07-29T05:49:34;99614.69;;;25.08;53.12
73338;BME280;61575;49.908;35.556;2022-07-29T05:52:36;99623.75;;;25.30;53.51
73338;BME280;61575;49.908;35.556;2022-07-29T05:55:38;99619.63;;;25.55;52.64
73338;BME280;61575;49.908;35.556;2022-07-29T05:58:40;99608.44;;;25.61;51.80
73338;BME280;61575;49.908;35.556;2022-07-29T06:01:42;99609.97;;;25.74;52.20
73338;BME280;61575;49.908;35.556;2022-07-29T06:04:44;99614.28;;;25.92;51.59
73338;BME280;61575;49.908;35.556;2022-07-29T06:07:46;99617.28;;;25.90;49.88
73338;BME280;61575;49.908;35.556;2022-07-29T06:10:52;99617.41;;;26.10;49.55
73338;BME280;61575;49.908;35.556;2022-07-29T06:13:53;99613.06;;;26.14;49.45
73338;BME280;61575;49.908;35.556;2022-07-29T06:16:55;99608.63;;;26.40;48.85
73338;BME280;61575;49.908;35.556;2022-07-29T06:19:57;99618.19;;;26.75;48.60
73338;BME280;61575;49.908;35.556;2022-07-29T06:22:59;99612.78;;;26.95;47.35
73338;BME280;61575;49.908;35.556;2022-07-29T06:26:01;99617.47;;;26.95;46.64
73338;BME280;61575;49.908;35.556;2022-07-29T06:29:03;99606.16;;;26.86;46.38
73338;BME280;61575;49.908;35.556;2022-07-29T06:32:05;99616.88;;;26.88;45.73
73338;BME280;61575;49.908;35.556;2022-07-29T06:35:07;99617.03;;;26.66;45.40
73338;BME280;61575;49.908;35.556;2022-07-29T06:38:29;99613.94;;;26.99;44.91
73338;BME280;61575;49.908;35.556;2022-07-29T06:41:34;99612.22;;;26.88;44.63
73338;BME280;61575;49.908;35.556;2022-07-29T06:44:43;99615.09;;;27.14;44.17
73338;BME280;61575;49.908;35.556;2022-07-29T06:47:45;99615.22;;;27.44;44.02
73338;BME280;61575;49.908;35.556;2022-07-29T06:50:47;99614.41;;;27.54;44.00
73338;BME280;61575;49.908;35.556;2022-07-29T06:53:51;99607.81;;;27.55;43.55
73338;BME280;61575;49.908;35.556;2022-07-29T06:57:01;99610.22;;;27.31;43.03
73338;BME280;61575;49.908;35.556;2022-07-29T07:00:04;99613.28;;;27.45;44.00
73338;BME280;61575;49.908;35.556;2022-07-29T07:03:06;99613.91;;;27.67;44.03
73338;BME280;61575;49.908;35.556;2022-07-29T07:06:08;99608.44;;;27.87;43.52
73338;BME280;61575;49.908;35.556;2022-07-29T07:09:15;99610.38;;;28.02;42.80
73338;BME280;61575;49.908;35.556;2022-07-29T07:12:17;99606.25;;;28.20;43.65
73338;BME280;61575;49.908;35.556;2022-07-29T07:15:19;99608.47;;;28.43;42.68
73338;BME280;61575;49.908;35.556;2022-07-29T07:18:40;99599.38;;;28.43;41.73
73338;BME280;61575;49.908;35.556;2022-07-29T07:21:42;99614.81;;;28.28;41.40
73338;BME280;61575;49.908;35.556;2022-07-29T07:24:44;99619.47;;;28.18;41.43
73338;BME280;61575;49.908;35.556;2022-07-29T07:27:46;99618.13;;;28.35;40.57
73338;BME280;61575;49.908;35.556;2022-07-29T07:30:48;99632.72;;;28.46;40.43
73338;BME280;61575;49.908;35.556;2022-07-29T07:33:50;99623.09;;;28.38;39.08
73338;BME280;61575;49.908;35.556;2022-07-29T07:36:53;99629.13;;;28.61;40.34
73338;BME280;61575;49.908;35.556;2022-07-29T07:39:55;99624.47;;;28.41;39.32
73338;BME280;61575;49.908;35.556;2022-07-29T07:42:56;99625.81;;;28.59;40.49
73338;BME280;61575;49.908;35.556;2022-07-29T07:45:58;99628.56;;;28.64;39.79
73338;BME280;61575;49.908;35.556;2022-07-29T07:49:00;99625.50;;;28.86;39.77
73338;BME280;61575;49.908;35.556;2022-07-29T07:52:02;99620.56;;;28.73;38.58
73338;BME280;61575;49.908;35.556;2022-07-29T07:55:04;99631.59;;;28.73;37.98
73338;BME280;61575;49.908;35.556;2022-07-29T07:58:07;99626.88;;;28.93;38.78
73338;BME280;61575;49.908;35.556;2022-07-29T08:01:09;99624.09;;;28.93;38.59
73338;BME280;61575;49.908;35.556;2022-07-29T08:04:11;99624.91;;;29.04;38.25
73338;BME280;61575;49.908;35.556;2022-07-29T08:07:14;99628.16;;;29.16;38.20
73338;BME280;61575;49.908;35.556;2022-07-29T08:10:18;99622.03;;;29.29;37.80
73338;BME280;61575;49.908;35.556;2022-07-29T08:13:40;99619.19;;;29.50;36.10
73338;BME280;61575;49.908;35.556;2022-07-29T08:16:42;99628.09;;;29.31;36.34
73338;BME280;61575;49.908;35.556;2022-07-29T08:19:44;99619.56;;;29.28;34.15
73338;BME280;61575;49.908;35.556;2022-07-29T08:22:47;99628.53;;;29.59;35.41
73338;BME280;61575;49.908;35.556;2022-07-29T08:25:49;99624.13;;;29.58;34.95
73338;BME280;61575;49.908;35.556;2022-07-29T08:28:51;99628.81;;;29.57;36.56
73338;BME280;61575;49.908;35.556;2022-07-29T08:31:52;99632.78;;;29.85;37.44
73338;BME280;61575;49.908;35.556;2022-07-29T08:34:55;99622.16;;;30.08;36.34
73338;BME280;61575;49.908;35.556;2022-07-29T08:37:57;99622.41;;;29.67;33.93
73338;BME280;61575;49.908;35.556;2022-07-29T08:41:00;99628.41;;;29.79;34.73
73338;BME280;61575;49.908;35.556;2022-07-29T08:44:03;99629.38;;;30.04;34.39
73338;BME280;61575;49.908;35.556;2022-07-29T08:47:05;99630.06;;;30.19;34.92
73338;BME280;61575;49.908;35.556;2022-07-29T08:50:08;99613.97;;;30.26;34.91
73338;BME280;61575;49.908;35.556;2022-07-29T08:53:13;99621.41;;;29.92;35.32
73338;BME280;61575;49.908;35.556;2022-07-29T08:56:16;99619.13;;;30.04;35.60
73338;BME280;61575;49.908;35.556;2022-07-29T08:59:20;99615.00;;;30.02;34.92
73338;BME280;61575;49.908;35.556;2022-07-29T09:02:28;99613.84;;;30.08;34.81
73338;BME280;61575;49.908;35.556;2022-07-29T09:05:33;99614.59;;;30.18;34.04
73338;BME280;61575;49.908;35.556;2022-07-29T09:08:42;99615.09;;;30.25;33.74
73338;BME280;61575;49.908;35.556;2022-07-29T09:11:44;99613.59;;;30.38;33.21
73338;BME280;61575;49.908;35.556;2022-07-29T09:14:46;99614.41;;;30.39;33.65
73338;BME280;61575;49.908;35.556;2022-07-29T09:17:49;99622.63;;;30.49;33.22
73338;BME280;61575;49.908;35.556;2022-07-29T09:20:52;99626.75;;;30.51;33.44
73338;BME280;61575;49.908;35.556;2022-07-29T09:24:13;99608.13;;;30.62;32.83
73338;BME280;61575;49.908;35.556;2022-07-29T09:27:23;99605.50;;;30.76;32.04
73338;BME280;61575;49.908;35.556;2022-07-29T09:30:30;99613.56;;;30.72;32.28
73338;BME280;61575;49.908;35.556;2022-07-29T09:33:33;99607.78;;;30.69;32.80
73338;BME280;61575;49.908;35.556;2022-07-29T09:36:43;99611.38;;;30.69;32.40
73338;BME280;61575;49.908;35.556;2022-07-29T09:39:46;99605.06;;;30.64;32.73
73338;BME280;61575;49.908;35.556;2022-07-29T09:42:48;99615.25;;;30.68;33.30
73338;BME280;61575;49.908;35.556;2022-07-29T09:45:51;99612.50;;;30.92;32.36
73338;BME280;61575;49.908;35.556;2022-07-29T09:49:06;99609.31;;;31.04;32.31
73338;BME280;61575;49.908;35.556;2022-07-29T09:52:12;99603.41;;;31.15;32.66
73338;BME280;61575;49.908;35.556;2022-07-29T09:55:15;99610.22;;;30.99;33.72
73338;BME280;61575;49.908;35.556;2022-07-29T09:58:20;99605.19;;;31.01;34.55
73338;BME280;61575;49.908;35.556;2022-07-29T10:01:29;99599.44;;;30.98;32.56
73338;BME280;61575;49.908;35.556;2022-07-29T10:04:41;99606.25;;;31.05;33.31
73338;BME280;61575;49.908;35.556;2022-07-29T10:07:46;99601.91;;;30.99;32.91
73338;BME280;61575;49.908;35.556;2022-07-29T10:11:09;99615.28;;;30.92;32.29
73338;BME280;61575;49.908;35.556;2022-07-29T10:14:11;99603.69;;;31.14;31.27
73338;BME280;61575;49.908;35.556;2022-07-29T10:17:13;99612.03;;;31.09;31.88
73338;BME280;61575;49.908;35.556;2022-07-29T10:20:16;99594.28;;;31.10;31.76
73338;BME280;61575;49.908;35.556;2022-07-29T10:23:18;99600.50;;;30.78;32.30
73338;BME280;61575;49.908;35.556;2022-07-29T10:26:21;99611.03;;;30.76;31.46
73338;BME280;61575;49.908;35.556;2022-07-29T10:29:23;99603.19;;;30.83;32.66
73338;BME280;61575;49.908;35.556;2022-07-29T10:42:52;99606.84;;;30.49;31.50
73338;BME280;61575;49.908;35.556;2022-07-29T10:45:59;99607.97;;;30.48;30.69
73338;BME280;61575;49.908;35.556;2022-07-29T10:49:12;99610.16;;;30.51;31.55
73338;BME280;61575;49.908;35.556;2022-07-29T10:52:16;99603.50;;;30.52;31.04
73338;BME280;61575;49.908;35.556;2022-07-29T10:55:39;99605.63;;;30.32;32.55
73338;BME280;61575;49.908;35.556;2022-07-29T11:05:54;99600.97;;;31.09;30.93
73338;BME280;61575;49.908;35.556;2022-07-29T11:09:18;99605.09;;;30.87;31.50
73338;BME280;61575;49.908;35.556;2022-07-29T11:22:33;99607.31;;;30.85;32.61
73338;BME280;61575;49.908;35.556;2022-07-29T11:25:36;99600.44;;;30.83;32.67
73338;BME280;61575;49.908;35.556;2022-07-29T11:32:11;99602.97;;;31.03;30.62
73338;BME280;61575;49.908;35.556;2022-07-29T11:35:21;99600.78;;;31.00;29.46
73338;BME280;61575;49.908;35.556;2022-07-29T11:38:41;99592.53;;;30.95;29.75
73338;BME280;61575;49.908;35.556;2022-07-29T11:41:43;99592.25;;;30.97;30.21
73338;BME280;61575;49.908;35.556;2022-07-29T11:48:05;99589.84;;;31.14;30.38
73338;BME280;61575;49.908;35.556;2022-07-29T11:51:27;99591.22;;;31.11;30.53
73338;BME280;61575;49.908;35.556;2022-07-29T11:54:34;99598.06;;;30.95;30.23
73338;BME280;61575;49.908;35.556;2022-07-29T11:58:00;99580.81;;;31.03;29.52
73338;BME280;61575;49.908;35.556;2022-07-29T12:01:12;99590.19;;;31.07;30.33
73338;BME280;61575;49.908;35.556;2022-07-29T12:04:24;99582.34;;;30.67;30.40
73338;BME280;61575;49.908;35.556;2022-07-29T12:07:30;99585.25;;;30.80;29.88
73338;BME280;61575;49.908;35.556;2022-07-29T12:10:36;99584.47;;;30.75;30.33
73338;BME280;61575;49.908;35.556;2022-07-29T12:13:38;99579.47;;;30.77;28.66
73338;BME280;61575;49.908;35.556;2022-07-29T12:16:41;99594.25;;;30.67;29.34
73338;BME280;61575;49.908;35.556;2022-07-29T12:19:44;99575.97;;;30.37;30.18
73338;BME280;61575;49.908;35.556;2022-07-29T12:22:46;99574.63;;;30.35;29.76
73338;BME280;61575;49.908;35.556;2022-07-29T12:25:50;99563.38;;;30.26;30.65
73338;BME280;61575;49.908;35.556;2022-07-29T12:28:54;99566.53;;;30.43;30.03
73338;BME280;61575;49.908;35.556;2022-07-29T12:31:57;99566.22;;;30.16;31.20
73338;BME280;61575;49.908;35.556;2022-07-29T12:35:23;99560.25;;;30.04;30.54
73338;BME280;61575;49.908;35.556;2022-07-29T12:38:25;99558.63;;;29.97;30.14
73338;BME280;61575;49.908;35.556;2022-07-29T12:41:28;99559.63;;;30.12;29.28
73338;BME280;61575;49.908;35.556;2022-07-29T12:44:47;99560.38;;;30.22;29.67
73338;BME280;61575;49.908;35.556;2022-07-29T12:47:52;99560.22;;;30.38;28.68
73338;BME280;61575;49.908;35.556;2022-07-29T12:50:56;99559.88;;;30.44;29.66
73338;BME280;61575;49.908;35.556;2022-07-29T12:54:10;99554.28;;;30.49;29.06
73338;BME280;61575;49.908;35.556;2022-07-29T12:57:12;99552.38;;;30.45;29.51
73338;BME280;61575;49.908;35.556;2022-07-29T13:00:24;99561.31;;;30.37;29.12
73338;BME280;61575;49.908;35.556;2022-07-29T13:03:26;99557.00;;;30.25;29.74
73338;BME280;61575;49.908;35.556;2022-07-29T13:09:41;99550.69;;;30.49;30.35
73338;BME280;61575;49.908;35.556;2022-07-29T13:16:07;99560.22;;;30.67;30.80
73338;BME280;61575;49.908;35.556;2022-07-29T13:19:11;99552.13;;;30.70;30.56
73338;BME280;61575;49.908;35.556;2022-07-29T13:22:19;99557.44;;;30.67;29.71
73338;BME280;61575;49.908;35.556;2022-07-29T13:25:27;99556.47;;;30.52;29.69
73338;BME280;61575;49.908;35.556;2022-07-29T13:28:31;99561.56;;;30.40;29.03
73338;BME280;61575;49.908;35.556;2022-07-29T13:31:33;99559.34;;;30.42;30.05
73338;BME280;61575;49.908;35.556;2022-07-29T13:34:35;99553.50;;;30.44;29.74
73338;BME280;61575;49.908;35.556;2022-07-29T13:37:37;99555.22;;;30.40;30.25
73338;BME280;61575;49.908;35.556;2022-07-29T13:40:41;99556.16;;;30.54;29.87
73338;BME280;61575;49.908;35.556;2022-07-29T13:43:43;99552.03;;;30.51;31.39
73338;BME280;61575;49.908;35.556;2022-07-29T13:46:45;99557.50;;;30.33;29.45
73338;BME280;61575;49.908;35.556;2022-07-29T13:49:48;99546.72;;;30.31;29.82
73338;BME280;61575;49.908;35.556;2022-07-29T13:52:50;99556.97;;;30.31;30.71
73338;BME280;61575;49.908;35.556;2022-07-29T13:55:52;99546.63;;;30.41;31.31
73338;BME280;61575;49.908;35.556;2022-07-29T13:58:54;99547.63;;;30.50;30.23
73338;BME280;61575;49.908;35.556;2022-07-29T14:01:56;99549.88;;;30.48;30.79
73338;BME280;61575;49.908;35.556;2022-07-29T14:04:59;99551.28;;;30.46;30.13
73338;BME280;61575;49.908;35.556;2022-07-29T14:08:06;99550.59;;;30.30;30.30
73338;BME280;61575;49.908;35.556;2022-07-29T14:11:08;99547.56;;;30.32;30.30
73338;BME280;61575;49.908;35.556;2022-07-29T14:14:11;99548.66;;;30.31;29.95
73338;BME280;61575;49.908;35.556;2022-07-29T14:17:13;99546.72;;;30.31;29.33
73338;BME280;61575;49.908;35.556;2022-07-29T14:20:16;99556.81;;;30.17;29.52
73338;BME280;61575;49.908;35.556;2022-07-29T14:23:18;99552.34;;;30.21;30.12
73338;BME280;61575;49.908;35.556;2022-07-29T14:26:21;99558.94;;;30.25;29.73
73338;BME280;61575;49.908;35.556;2022-07-29T14:29:25;99544.53;;;30.28;29.98
73338;BME280;61575;49.908;35.556;2022-07-29T14:32:39;99552.22;;;30.36;30.03
73338;BME280;61575;49.908;35.556;2022-07-29T14:35:41;99551.13;;;30.32;30.71
73338;BME280;61575;49.908;35.556;2022-07-29T14:38:43;99545.75;;;30.46;30.20
73338;BME280;61575;49.908;35.556;2022-07-29T14:41:45;99545.53;;;30.66;29.55
73338;BME280;61575;49.908;35.556;2022-07-29T14:44:46;99543.69;;;30.56;30.72
73338;BME280;61575;49.908;35.556;2022-07-29T14:47:49;99551.66;;;30.63;30.17
73338;BME280;61575;49.908;35.556;2022-07-29T14:50:58;99543.00;;;30.70;29.70
73338;BME280;61575;49.908;35.556;2022-07-29T14:54:05;99550.94;;;30.52;29.46
73338;BME280;61575;49.908;35.556;2022-07-29T14:57:07;99548.97;;;30.29;29.54
73338;BME280;61575;49.908;35.556;2022-07-29T15:00:09;99551.81;;;30.48;30.87
73338;BME280;61575;49.908;35.556;2022-07-29T15:03:12;99544.63;;;30.47;30.13
73338;BME280;61575;49.908;35.556;2022-07-29T15:06:25;99538.78;;;30.48;29.14
73338;BME280;61575;49.908;35.556;2022-07-29T15:09:27;99547.78;;;30.35;29.50
73338;BME280;61575;49.908;35.556;2022-07-29T15:12:30;99538.38;;;30.36;29.59
73338;BME280;61575;49.908;35.556;2022-07-29T15:15:32;99537.03;;;30.34;30.73
73338;BME280;61575;49.908;35.556;2022-07-29T15:18:34;99540.84;;;30.38;31.03
73338;BME280;61575;49.908;35.556;2022-07-29T15:21:39;99544.53;;;30.28;30.20
73338;BME280;61575;49.908;35.556;2022-07-29T15:24:48;99539.13;;;30.18;29.72
73338;BME280;61575;49.908;35.556;2022-07-29T15:27:50;99542.03;;;30.03;30.44
73338;BME280;61575;49.908;35.556;2022-07-29T15:30:55;99536.34;;;29.84;31.23
73338;BME280;61575;49.908;35.556;2022-07-29T15:33:57;99534.53;;;29.69;31.50
73338;BME280;61575;49.908;35.556;2022-07-29T15:37:05;99541.59;;;29.41;32.06
73338;BME280;61575;49.908;35.556;2022-07-29T15:40:08;99543.16;;;29.13;32.54
73338;BME280;61575;49.908;35.556;2022-07-29T15:43:10;99547.94;;;28.92;32.85
73338;BME280;61575;49.908;35.556;2022-07-29T15:46:15;99548.25;;;28.70;33.14
73338;BME280;61575;49.908;35.556;2022-07-29T15:49:37;99559.94;;;28.37;33.45
73338;BME280;61575;49.908;35.556;2022-07-29T15:52:49;99567.09;;;28.13;33.81
73338;BME280;61575;49.908;35.556;2022-07-29T15:55:51;99566.56;;;27.95;34.27
73338;BME280;61575;49.908;35.556;2022-07-29T15:58:53;99570.97;;;27.81;34.31
73338;BME280;61575;49.908;35.556;2022-07-29T16:01:55;99573.97;;;27.64;35.43
73338;BME280;61575;49.908;35.556;2022-07-29T16:04:57;99568.69;;;27.53;35.56
73338;BME280;61575;49.908;35.556;2022-07-29T16:07:59;99567.56;;;27.38;35.85
73338;BME280;61575;49.908;35.556;2022-07-29T16:11:01;99564.47;;;27.20;35.66
73338;BME280;61575;49.908;35.556;2022-07-29T16:14:03;99572.16;;;27.13;35.96
73338;BME280;61575;49.908;35.556;2022-07-29T16:17:05;99574.34;;;27.05;36.23
73338;BME280;61575;49.908;35.556;2022-07-29T16:20:08;99568.53;;;26.97;36.60
73338;BME280;61575;49.908;35.556;2022-07-29T16:23:13;99564.56;;;26.77;37.12
73338;BME280;61575;49.908;35.556;2022-07-29T16:26:16;99571.41;;;26.70;37.31
73338;BME280;61575;49.908;35.556;2022-07-29T16:29:20;99569.16;;;26.62;37.28
73338;BME280;61575;49.908;35.556;2022-07-29T16:32:22;99564.38;;;26.42;37.63
73338;BME280;61575;49.908;35.556;2022-07-29T16:35:24;99555.56;;;26.40;37.79
73338;BME280;61575;49.908;35.556;2022-07-29T16:38:40;99551.88;;;26.29;38.21
73338;BME280;61575;49.908;35.556;2022-07-29T16:41:48;99554.28;;;26.21;38.38
73338;BME280;61575;49.908;35.556;2022-07-29T16:44:50;99559.19;;;26.13;38.98
73338;BME280;61575;49.908;35.556;2022-07-29T16:47:53;99555.44;;;25.88;39.54
73338;BME280;61575;49.908;35.556;2022-07-29T16:51:02;99562.03;;;25.87;39.33
73338;BME280;61575;49.908;35.556;2022-07-29T16:54:04;99560.34;;;25.80;39.18
73338;BME280;61575;49.908;35.556;2022-07-29T16:57:06;99564.91;;;25.70;39.25
73338;BME280;61575;49.908;35.556;2022-07-29T17:00:09;99563.13;;;25.59;40.16